createdAt,value
2017-07-29T00:00:29.391Z,1003.9
2017-07-29T00:01:30.766Z,1003.9
2017-07-29T00:02:32.144Z,1003.8
2017-07-29T00:03:33.521Z,1003.9
2017-07-29T00:04:34.919Z,1003.8
2017-07-29T00:05:36.290Z,1003.9
2017-07-29T00:06:37.679Z,1003.9
2017-07-29T00:07:39.055Z,1003.7
2017-07-29T00:08:40.430Z,1003.7
2017-07-29T00:09:41.810Z,1003.7
2017-07-29T00:11:24.179Z,1003.7
2017-07-29T00:12:25.556Z,1003.7
2017-07-29T00:13:26.934Z,1003.6
2017-07-29T00:14:28.310Z,1003.6
2017-07-29T00:15:29.721Z,1003.6
2017-07-29T00:16:31.076Z,1003.6
2017-07-29T00:17:32.472Z,1003.6
2017-07-29T00:18:33.858Z,1003.6
2017-07-29T00:19:35.234Z,1003.7
2017-07-29T00:20:36.612Z,1003.6
2017-07-29T00:21:37.991Z,1003.6
2017-07-29T00:23:20.359Z,1003.7
2017-07-29T00:24:21.735Z,1003.7
2017-07-29T00:25:23.107Z,1003.7
2017-07-29T00:26:24.493Z,1003.6
2017-07-29T00:27:25.916Z,1003.7
2017-07-29T00:28:27.299Z,1003.6
2017-07-29T00:29:28.672Z,1003.6
2017-07-29T00:30:30.056Z,1003.6
2017-07-29T00:31:31.433Z,1003.6
2017-07-29T00:32:32.823Z,1003.6
2017-07-29T00:33:34.201Z,1003.6
2017-07-29T00:34:35.579Z,1003.6
2017-07-29T00:35:36.956Z,1003.6
2017-07-29T00:36:38.339Z,1003.6
2017-07-29T00:37:39.721Z,1003.6
2017-07-29T00:38:41.099Z,1003.6
2017-07-29T00:39:42.473Z,1003.5
2017-07-29T00:40:43.844Z,1003.4
2017-07-29T00:41:45.231Z,1003.4
2017-07-29T00:42:46.612Z,1003.3
2017-07-29T00:43:47.997Z,1003.2
2017-07-29T00:45:30.368Z,1003.2
2017-07-29T00:46:31.744Z,1003.3
2017-07-29T00:47:33.127Z,1003.3
2017-07-29T00:48:34.504Z,1003.2
2017-07-29T00:49:35.933Z,1003.1
2017-07-29T00:50:37.311Z,1003.1
2017-07-29T00:51:38.691Z,1003.1
2017-07-29T00:52:40.073Z,1003.1
2017-07-29T00:53:41.449Z,1003.1
2017-07-29T00:54:42.854Z,1003.1
2017-07-29T00:55:44.232Z,1003.1
2017-07-29T00:56:45.609Z,1003.1
2017-07-29T00:57:46.988Z,1003.0
2017-07-29T00:58:48.370Z,1003.0
2017-07-29T00:59:49.749Z,1003.0
2017-07-29T01:00:51.132Z,1003.0
2017-07-29T01:01:52.500Z,1003.1
2017-07-29T01:02:53.881Z,1003.1
2017-07-29T01:03:55.263Z,1003.1
2017-07-29T01:04:56.640Z,1003.1
2017-07-29T01:05:58.020Z,1003.1
2017-07-29T01:06:59.399Z,1003.1
2017-07-29T01:08:00.783Z,1003.0
2017-07-29T01:09:02.162Z,1003.0
2017-07-29T01:10:03.544Z,1003.0
2017-07-29T01:11:04.934Z,1003.0
2017-07-29T01:12:06.302Z,1002.9
2017-07-29T01:13:07.700Z,1002.9
2017-07-29T01:14:09.077Z,1003.0
2017-07-29T01:15:10.458Z,1002.9
2017-07-29T01:16:11.836Z,1003.0
2017-07-29T01:17:13.218Z,1002.9
2017-07-29T01:18:14.595Z,1003.0
2017-07-29T01:19:15.975Z,1002.9
2017-07-29T01:20:17.358Z,1003.0
2017-07-29T01:21:18.740Z,1003.0
2017-07-29T01:22:20.116Z,1002.9
2017-07-29T01:23:21.495Z,1002.9
2017-07-29T01:24:22.879Z,1002.8
2017-07-29T01:25:24.257Z,1002.8
2017-07-29T01:26:25.638Z,1002.8
2017-07-29T01:27:27.017Z,1002.8
2017-07-29T01:28:28.400Z,1002.8
2017-07-29T01:29:29.780Z,1002.8
2017-07-29T01:30:31.156Z,1002.7
2017-07-29T01:31:32.548Z,1002.7
2017-07-29T01:32:33.916Z,1002.7
2017-07-29T01:33:35.298Z,1002.7
2017-07-29T01:34:36.676Z,1002.8
2017-07-29T01:36:19.087Z,1002.7
2017-07-29T01:37:20.464Z,1002.7
2017-07-29T01:38:21.838Z,1002.7
2017-07-29T01:39:23.222Z,1002.7
2017-07-29T01:40:24.619Z,1002.7
2017-07-29T01:41:25.996Z,1002.7
2017-07-29T01:42:27.384Z,1002.7
2017-07-29T01:43:28.760Z,1002.6
2017-07-29T01:44:30.138Z,1002.6
2017-07-29T01:45:31.515Z,1002.6
2017-07-29T01:46:32.897Z,1002.6
2017-07-29T01:47:34.277Z,1002.6
2017-07-29T01:48:35.653Z,1002.5
2017-07-29T01:49:37.032Z,1002.6
2017-07-29T01:50:38.410Z,1002.6
2017-07-29T01:51:39.786Z,1002.6
2017-07-29T01:52:41.167Z,1002.6
2017-07-29T01:53:42.549Z,1002.6
2017-07-29T01:54:43.924Z,1002.6
2017-07-29T01:56:26.311Z,1002.6
2017-07-29T01:57:27.700Z,1002.6
2017-07-29T01:58:29.080Z,1002.5
2017-07-29T01:59:30.458Z,1002.5
2017-07-29T02:00:31.838Z,1002.5
2017-07-29T02:01:33.217Z,1002.5
2017-07-29T02:02:34.602Z,1002.5
2017-07-29T02:03:35.982Z,1002.6
2017-07-29T02:04:37.401Z,1002.5
2017-07-29T02:05:38.742Z,1002.5
2017-07-29T02:06:40.120Z,1002.5
2017-07-29T02:07:41.502Z,1002.5
2017-07-29T02:08:42.879Z,1002.5
2017-07-29T02:09:44.279Z,1002.5
2017-07-29T02:10:45.651Z,1002.5
2017-07-29T02:11:47.029Z,1002.5
2017-07-29T02:12:48.408Z,1002.5
2017-07-29T02:14:30.789Z,1002.5
2017-07-29T02:15:32.158Z,1002.4
2017-07-29T02:16:33.539Z,1002.5
2017-07-29T02:17:34.922Z,1002.5
2017-07-29T02:18:36.328Z,1002.5
2017-07-29T02:19:37.709Z,1002.5
2017-07-29T02:20:39.092Z,1002.5
2017-07-29T02:21:40.469Z,1002.5
2017-07-29T02:23:21.846Z,1002.5
2017-07-29T02:24:23.225Z,1002.6
2017-07-29T02:25:24.623Z,1002.5
2017-07-29T02:26:26.006Z,1002.5
2017-07-29T02:27:27.383Z,1002.5
2017-07-29T02:28:28.759Z,1002.5
2017-07-29T02:29:30.144Z,1002.4
2017-07-29T02:30:31.525Z,1002.5
2017-07-29T02:31:32.901Z,1002.5
2017-07-29T02:32:34.299Z,1002.5
2017-07-29T02:33:35.682Z,1002.4
2017-07-29T02:34:37.067Z,1002.4
2017-07-29T02:35:38.444Z,1002.4
2017-07-29T02:36:39.826Z,1002.5
2017-07-29T02:37:41.207Z,1002.4
2017-07-29T02:38:42.581Z,1002.4
2017-07-29T02:39:43.960Z,1002.3
2017-07-29T02:40:45.348Z,1002.4
2017-07-29T02:41:46.728Z,1002.4
2017-07-29T02:42:48.109Z,1002.4
2017-07-29T02:43:49.511Z,1002.4
2017-07-29T02:44:50.893Z,1002.3
2017-07-29T02:45:52.268Z,1002.3
2017-07-29T02:46:53.667Z,1002.3
2017-07-29T02:47:55.027Z,1002.3
2017-07-29T02:48:56.405Z,1002.4
2017-07-29T02:49:57.795Z,1002.3
2017-07-29T02:50:59.266Z,1002.3
2017-07-29T02:52:00.649Z,1002.3
2017-07-29T02:53:02.025Z,1002.3
2017-07-29T02:54:03.412Z,1002.4
2017-07-29T02:55:04.843Z,1002.3
2017-07-29T02:56:06.222Z,1002.3
2017-07-29T02:57:07.603Z,1002.3
2017-07-29T02:58:09.067Z,1002.3
2017-07-29T02:59:10.440Z,1002.3
2017-07-29T03:00:11.818Z,1002.2
2017-07-29T03:01:13.202Z,1002.2
2017-07-29T03:02:14.591Z,1002.2
2017-07-29T03:03:15.970Z,1002.2
2017-07-29T03:04:17.359Z,1002.3
2017-07-29T03:05:18.742Z,1002.2
2017-07-29T03:06:20.121Z,1002.2
2017-07-29T03:07:21.500Z,1002.2
2017-07-29T03:08:22.878Z,1002.2
2017-07-29T03:09:24.256Z,1002.2
2017-07-29T03:10:25.637Z,1002.2
2017-07-29T03:11:27.021Z,1002.3
2017-07-29T03:12:28.411Z,1002.3
2017-07-29T03:14:10.781Z,1002.3
2017-07-29T03:15:12.161Z,1002.3
2017-07-29T03:16:13.539Z,1002.3
2017-07-29T03:17:14.925Z,1002.3
2017-07-29T03:18:16.298Z,1002.3
2017-07-29T03:19:17.697Z,1002.3
2017-07-29T03:20:19.116Z,1002.3
2017-07-29T03:21:20.467Z,1002.3
2017-07-29T03:22:21.845Z,1002.3
2017-07-29T03:23:23.224Z,1002.3
2017-07-29T03:24:24.606Z,1002.3
2017-07-29T03:25:25.982Z,1002.3
2017-07-29T03:27:08.354Z,1002.3
2017-07-29T03:28:09.734Z,1002.3
2017-07-29T03:29:11.128Z,1002.3
2017-07-29T03:30:12.494Z,1002.3
2017-07-29T03:31:13.885Z,1002.3
2017-07-29T03:32:15.268Z,1002.3
2017-07-29T03:33:16.650Z,1002.3
2017-07-29T03:34:18.032Z,1002.3
2017-07-29T03:35:19.408Z,1002.3
2017-07-29T03:36:20.787Z,1002.3
2017-07-29T03:37:22.171Z,1002.3
2017-07-29T03:38:23.553Z,1002.3
2017-07-29T03:39:24.936Z,1002.3
2017-07-29T03:40:26.323Z,1002.4
2017-07-29T03:42:08.694Z,1002.4
2017-07-29T03:43:10.073Z,1002.3
2017-07-29T03:44:11.450Z,1002.3
2017-07-29T03:45:12.832Z,1002.3
2017-07-29T03:46:14.225Z,1002.4
2017-07-29T03:47:15.602Z,1002.3
2017-07-29T03:48:16.986Z,1002.3
2017-07-29T03:49:18.369Z,1002.3
2017-07-29T03:50:19.771Z,1002.2
2017-07-29T03:51:21.152Z,1002.2
2017-07-29T03:52:22.542Z,1002.2
2017-07-29T03:53:23.936Z,1002.2
2017-07-29T03:54:25.330Z,1002.2
2017-07-29T03:55:26.712Z,1002.1
2017-07-29T03:56:28.099Z,1002.2
2017-07-29T03:58:10.498Z,1002.2
2017-07-29T03:59:11.856Z,1002.2
2017-07-29T04:00:13.237Z,1002.1
2017-07-29T04:01:14.618Z,1002.2
2017-07-29T04:02:16.004Z,1002.2
2017-07-29T04:03:17.393Z,1002.1
2017-07-29T04:04:18.775Z,1002.2
2017-07-29T04:05:20.180Z,1002.2
2017-07-29T04:06:21.589Z,1002.2
2017-07-29T04:07:22.966Z,1002.2
2017-07-29T04:08:24.363Z,1002.2
2017-07-29T04:09:25.744Z,1002.2
2017-07-29T04:10:27.129Z,1002.3
2017-07-29T04:11:28.514Z,1002.3
2017-07-29T04:12:29.908Z,1002.3
2017-07-29T04:13:31.289Z,1002.2
2017-07-29T04:14:32.670Z,1002.3
2017-07-29T04:16:15.094Z,1002.2
2017-07-29T04:17:16.476Z,1002.2
2017-07-29T04:18:17.864Z,1002.3
2017-07-29T04:19:19.244Z,1002.2
2017-07-29T04:20:21.055Z,1002.2
2017-07-29T04:21:22.436Z,1002.3
2017-07-29T04:22:23.822Z,1002.3
2017-07-29T04:23:25.218Z,1002.2
2017-07-29T04:24:26.602Z,1002.3
2017-07-29T04:25:27.978Z,1002.3
2017-07-29T04:26:29.374Z,1002.2
2017-07-29T04:27:30.757Z,1002.3
2017-07-29T04:28:32.139Z,1002.3
2017-07-29T04:29:33.520Z,1002.3
2017-07-29T04:30:34.920Z,1002.3
2017-07-29T04:31:36.300Z,1002.3
2017-07-29T04:32:37.683Z,1002.3
2017-07-29T04:33:39.063Z,1002.3
2017-07-29T04:34:40.459Z,1002.3
2017-07-29T04:35:41.853Z,1002.4
2017-07-29T04:36:43.241Z,1002.4
2017-07-29T04:37:44.731Z,1002.4
2017-07-29T04:38:46.135Z,1002.4
2017-07-29T04:39:47.519Z,1002.4
2017-07-29T04:40:48.903Z,1002.4
2017-07-29T04:41:50.309Z,1002.3
2017-07-29T04:42:51.696Z,1002.4
2017-07-29T04:43:53.101Z,1002.4
2017-07-29T04:44:54.574Z,1002.4
2017-07-29T04:45:55.952Z,1002.4
2017-07-29T04:46:57.361Z,1002.4
2017-07-29T04:48:39.755Z,1002.4
2017-07-29T04:49:41.139Z,1002.6
2017-07-29T04:50:42.520Z,1002.5
2017-07-29T04:51:43.905Z,1002.6
2017-07-29T04:52:45.289Z,1002.6
2017-07-29T04:53:46.697Z,1002.5
2017-07-29T04:54:48.060Z,1002.6
2017-07-29T04:55:49.446Z,1002.6
2017-07-29T04:56:50.830Z,1002.5
2017-07-29T04:57:52.212Z,1002.5
2017-07-29T04:58:53.593Z,1002.6
2017-07-29T04:59:54.988Z,1002.6
2017-07-29T05:00:56.376Z,1002.5
2017-07-29T05:01:57.764Z,1002.5
2017-07-29T05:02:59.150Z,1002.5
2017-07-29T05:04:00.541Z,1002.6
2017-07-29T05:05:01.926Z,1002.5
2017-07-29T05:06:03.308Z,1002.6
2017-07-29T05:07:04.722Z,1002.5
2017-07-29T05:08:06.105Z,1002.6
2017-07-29T05:09:07.495Z,1002.5
2017-07-29T05:10:08.881Z,1002.5
2017-07-29T05:11:10.281Z,1002.5
2017-07-29T05:12:11.665Z,1002.5
2017-07-29T05:13:13.061Z,1002.5
2017-07-29T05:14:14.455Z,1002.5
2017-07-29T05:15:15.843Z,1002.5
2017-07-29T05:16:17.230Z,1002.5
2017-07-29T05:17:18.612Z,1002.6
2017-07-29T05:18:19.999Z,1002.6
2017-07-29T05:19:21.411Z,1002.6
2017-07-29T05:20:22.794Z,1002.6
2017-07-29T05:21:24.185Z,1002.6
2017-07-29T05:22:25.578Z,1002.6
2017-07-29T05:23:26.970Z,1002.4
2017-07-29T05:24:28.365Z,1002.5
2017-07-29T05:25:29.796Z,1002.5
2017-07-29T05:26:31.171Z,1002.5
2017-07-29T05:27:32.557Z,1002.5
2017-07-29T05:28:33.949Z,1002.5
2017-07-29T05:29:35.357Z,1002.5
2017-07-29T05:30:36.740Z,1002.5
2017-07-29T05:31:38.130Z,1002.5
2017-07-29T05:32:39.621Z,1002.5
2017-07-29T05:33:41.029Z,1002.6
2017-07-29T05:34:42.415Z,1002.5
2017-07-29T05:35:43.857Z,1002.5
2017-07-29T05:37:26.237Z,1002.6
2017-07-29T05:38:27.625Z,1002.6
2017-07-29T05:39:29.006Z,1002.7
2017-07-29T05:40:30.396Z,1002.6
2017-07-29T05:41:31.784Z,1002.7
2017-07-29T05:42:33.171Z,1002.6
2017-07-29T05:43:34.559Z,1002.6
2017-07-29T05:44:35.944Z,1002.6
2017-07-29T05:45:37.331Z,1002.7
2017-07-29T05:46:38.715Z,1002.6
2017-07-29T05:47:40.113Z,1002.6
2017-07-29T05:48:41.496Z,1002.5
2017-07-29T05:49:42.887Z,1002.6
2017-07-29T05:50:44.281Z,1002.6
2017-07-29T05:51:45.678Z,1002.6
2017-07-29T05:52:47.067Z,1002.7
2017-07-29T05:53:48.456Z,1002.7
2017-07-29T05:54:49.868Z,1002.7
2017-07-29T05:55:51.256Z,1002.7
2017-07-29T05:56:52.721Z,1002.7
2017-07-29T05:57:54.104Z,1002.6
2017-07-29T05:58:55.499Z,1002.6
2017-07-29T05:59:56.886Z,1002.6
2017-07-29T06:00:58.276Z,1002.6
2017-07-29T06:01:59.662Z,1002.6
2017-07-29T06:03:01.051Z,1002.7
2017-07-29T06:04:02.432Z,1002.6
2017-07-29T06:05:03.890Z,1002.7
2017-07-29T06:06:05.342Z,1002.7
2017-07-29T06:07:06.773Z,1002.7
2017-07-29T06:08:08.161Z,1002.8
2017-07-29T06:09:09.683Z,1002.9
2017-07-29T06:10:11.062Z,1002.9
2017-07-29T06:11:12.451Z,1002.9
2017-07-29T06:12:13.841Z,1002.9
2017-07-29T06:13:56.198Z,1002.9
2017-07-29T06:14:57.584Z,1002.7
2017-07-29T06:15:58.984Z,1002.7
2017-07-29T06:17:00.371Z,1002.7
2017-07-29T06:18:01.759Z,1002.7
2017-07-29T06:19:03.146Z,1002.6
2017-07-29T06:20:04.551Z,1002.7
2017-07-29T06:21:05.938Z,1002.8
2017-07-29T06:22:07.326Z,1003.0
2017-07-29T06:23:08.712Z,1002.9
2017-07-29T06:24:10.114Z,1003.1
2017-07-29T06:25:11.508Z,1003.4
2017-07-29T06:26:12.898Z,1003.0
2017-07-29T06:27:14.276Z,1003.0
2017-07-29T06:28:15.677Z,1003.2
2017-07-29T06:29:58.051Z,1003.1
2017-07-29T06:30:59.437Z,1003.2
2017-07-29T06:32:00.828Z,1003.9
2017-07-29T06:33:02.220Z,1005.3
2017-07-29T06:34:03.611Z,1002.8
2017-07-29T06:35:05.004Z,1002.8
2017-07-29T06:36:06.395Z,1003.5
2017-07-29T06:37:07.786Z,1003.2
2017-07-29T06:38:09.188Z,1003.3
2017-07-29T06:39:10.583Z,1003.6
2017-07-29T06:40:11.966Z,1002.8
2017-07-29T06:41:13.357Z,1002.6
2017-07-29T06:42:14.769Z,1003.1
2017-07-29T06:43:16.161Z,1002.9
2017-07-29T06:44:17.553Z,1002.8
2017-07-29T06:45:18.941Z,1003.1
2017-07-29T06:46:20.335Z,1003.4
2017-07-29T06:47:21.749Z,1003.5
2017-07-29T06:48:23.121Z,1003.1
2017-07-29T06:49:24.525Z,1003.1
2017-07-29T06:50:25.907Z,1003.0
2017-07-29T06:51:27.300Z,1003.0
2017-07-29T06:52:28.689Z,1003.0
2017-07-29T06:53:30.081Z,1003.0
2017-07-29T06:54:31.472Z,1002.9
2017-07-29T06:55:32.860Z,1002.9
2017-07-29T06:56:34.256Z,1003.1
2017-07-29T06:57:35.653Z,1003.2
2017-07-29T06:58:37.047Z,1003.6
2017-07-29T06:59:38.443Z,1003.4
2017-07-29T07:00:39.848Z,1003.1
2017-07-29T07:01:41.240Z,1003.1
2017-07-29T07:02:42.637Z,1003.1
2017-07-29T07:03:44.026Z,1003.2
2017-07-29T07:04:45.414Z,1003.1
2017-07-29T07:05:46.809Z,1003.1
2017-07-29T07:06:48.198Z,1003.2
2017-07-29T07:07:49.588Z,1003.2
2017-07-29T07:08:50.978Z,1003.2
2017-07-29T07:09:52.370Z,1003.1
2017-07-29T07:10:53.762Z,1003.2
2017-07-29T07:11:55.156Z,1003.4
2017-07-29T07:12:56.550Z,1003.3
2017-07-29T07:13:57.935Z,1003.4
2017-07-29T07:14:59.329Z,1003.4
2017-07-29T07:16:00.717Z,1003.5
2017-07-29T07:17:02.106Z,1003.1
2017-07-29T07:18:03.498Z,1003.1
2017-07-29T07:19:04.901Z,1003.3
2017-07-29T07:20:06.296Z,1003.4
2017-07-29T07:21:07.688Z,1003.1
2017-07-29T07:22:09.077Z,1003.1
2017-07-29T07:23:10.468Z,1003.4
2017-07-29T07:24:11.859Z,1003.5
2017-07-29T07:25:13.255Z,1003.5
2017-07-29T07:26:14.700Z,1004.0
2017-07-29T07:27:16.033Z,1003.4
2017-07-29T07:28:17.422Z,1003.2
2017-07-29T07:29:18.812Z,1003.2
2017-07-29T07:30:20.212Z,1003.1
2017-07-29T07:31:21.595Z,1003.3
2017-07-29T07:32:22.990Z,1003.2
2017-07-29T07:33:24.392Z,1003.3
2017-07-29T07:35:06.772Z,1003.3
2017-07-29T07:36:08.174Z,1003.2
2017-07-29T07:37:09.558Z,1003.1
2017-07-29T07:38:10.947Z,1003.2
2017-07-29T07:39:12.335Z,1003.3
2017-07-29T07:40:13.728Z,1003.3
2017-07-29T07:41:15.122Z,1003.3
2017-07-29T07:42:16.517Z,1003.3
2017-07-29T07:43:17.901Z,1003.4
2017-07-29T07:44:19.284Z,1003.4
2017-07-29T07:45:20.680Z,1003.3
2017-07-29T07:46:22.071Z,1003.3
2017-07-29T07:47:23.461Z,1003.3
2017-07-29T07:48:24.855Z,1003.3
2017-07-29T07:50:07.247Z,1003.4
2017-07-29T07:51:08.637Z,1003.4
2017-07-29T07:52:10.027Z,1003.4
2017-07-29T07:53:11.418Z,1003.4
2017-07-29T07:54:12.805Z,1003.4
2017-07-29T07:55:14.207Z,1003.4
2017-07-29T07:56:15.598Z,1003.5
2017-07-29T07:57:16.987Z,1003.5
2017-07-29T07:58:18.373Z,1003.4
2017-07-29T07:59:19.779Z,1003.4
2017-07-29T08:00:21.169Z,1003.3
2017-07-29T08:01:22.557Z,1003.5
2017-07-29T08:02:23.949Z,1003.4
2017-07-29T08:03:25.344Z,1003.5
2017-07-29T08:04:26.729Z,1003.5
2017-07-29T08:05:28.118Z,1003.4
2017-07-29T08:06:29.519Z,1003.5
2017-07-29T08:07:30.907Z,1003.5
2017-07-29T08:08:32.299Z,1003.6
2017-07-29T08:09:33.688Z,1003.5
2017-07-29T08:10:35.083Z,1003.7
2017-07-29T08:11:36.478Z,1003.8
2017-07-29T08:12:37.867Z,1003.8
2017-07-29T08:14:20.266Z,1004.0
2017-07-29T08:15:21.657Z,1004.3
2017-07-29T08:16:23.042Z,1003.8
2017-07-29T08:17:24.442Z,1003.7
2017-07-29T08:18:25.826Z,1003.8
2017-07-29T08:19:27.218Z,1003.7
2017-07-29T08:20:28.605Z,1003.7
2017-07-29T08:21:29.998Z,1003.7
2017-07-29T08:22:31.390Z,1003.8
2017-07-29T08:23:32.778Z,1003.8
2017-07-29T08:24:34.190Z,1004.0
2017-07-29T08:25:35.595Z,1004.3
2017-07-29T08:26:36.986Z,1004.2
2017-07-29T08:27:38.379Z,1004.0
2017-07-29T08:28:39.805Z,1003.9
2017-07-29T08:29:41.178Z,1004.0
2017-07-29T08:30:42.574Z,1003.9
2017-07-29T08:31:43.965Z,1004.0
2017-07-29T08:32:45.356Z,1004.0
2017-07-29T08:33:46.749Z,1003.8
2017-07-29T08:34:48.143Z,1003.8
2017-07-29T08:35:49.533Z,1004.0
2017-07-29T08:36:50.930Z,1004.1
2017-07-29T08:37:52.323Z,1004.2
2017-07-29T08:38:53.721Z,1004.2
2017-07-29T08:39:55.121Z,1004.1
2017-07-29T08:40:56.515Z,1003.9
2017-07-29T08:41:57.915Z,1003.9
2017-07-29T08:42:59.304Z,1003.9
2017-07-29T08:44:00.699Z,1003.8
2017-07-29T08:45:02.090Z,1003.9
2017-07-29T08:46:44.482Z,1004.1
2017-07-29T08:47:45.873Z,1004.1
2017-07-29T08:48:47.265Z,1004.0
2017-07-29T08:49:48.661Z,1004.1
2017-07-29T08:50:50.056Z,1004.0
2017-07-29T08:51:51.449Z,1003.9
2017-07-29T08:52:52.844Z,1004.0
2017-07-29T08:53:54.240Z,1004.2
2017-07-29T08:54:55.646Z,1003.9
2017-07-29T08:55:57.039Z,1003.9
2017-07-29T08:56:58.434Z,1004.1
2017-07-29T08:57:59.842Z,1003.9
2017-07-29T08:59:42.257Z,1003.9
2017-07-29T09:00:43.646Z,1004.9
2017-07-29T09:01:45.037Z,1004.4
2017-07-29T09:02:46.434Z,1004.3
2017-07-29T09:03:47.826Z,1003.9
2017-07-29T09:04:49.227Z,1004.6
2017-07-29T09:05:50.622Z,1004.2
2017-07-29T09:06:52.021Z,1006.2
2017-07-29T09:07:53.419Z,1004.9
2017-07-29T09:08:54.813Z,1004.9
2017-07-29T09:09:56.208Z,1004.5
2017-07-29T09:10:57.600Z,1004.9
2017-07-29T09:11:58.998Z,1006.4
2017-07-29T09:13:00.392Z,1004.6
2017-07-29T09:14:01.791Z,1005.9
2017-07-29T09:15:03.186Z,1005.4
2017-07-29T09:16:04.577Z,1005.2
2017-07-29T09:17:05.974Z,1005.0
2017-07-29T09:18:07.369Z,1005.1
2017-07-29T09:19:08.766Z,1004.9
2017-07-29T09:20:10.165Z,1005.0
2017-07-29T09:21:11.568Z,1005.0
2017-07-29T09:22:12.957Z,1004.5
2017-07-29T09:23:14.352Z,1004.8
2017-07-29T09:24:15.774Z,1004.6
2017-07-29T09:25:17.173Z,1004.8
2017-07-29T09:26:18.570Z,1004.9
2017-07-29T09:27:19.970Z,1004.6
2017-07-29T09:28:21.374Z,1004.4
2017-07-29T09:29:22.765Z,1004.5
2017-07-29T09:30:24.160Z,1004.3
2017-07-29T09:31:25.564Z,1004.3
2017-07-29T09:32:26.967Z,1004.8
2017-07-29T09:33:28.359Z,1004.5
2017-07-29T09:34:29.792Z,1004.7
2017-07-29T09:35:31.164Z,1004.6
2017-07-29T09:36:32.563Z,1004.4
2017-07-29T09:37:33.969Z,1004.7
2017-07-29T09:38:35.372Z,1004.3
2017-07-29T09:39:36.772Z,1004.3
2017-07-29T09:40:38.176Z,1004.3
2017-07-29T09:41:39.575Z,1004.2
2017-07-29T09:42:40.981Z,1004.0
2017-07-29T09:43:42.378Z,1004.3
2017-07-29T09:44:43.777Z,1004.3
2017-07-29T09:45:45.175Z,1004.3
2017-07-29T09:46:46.574Z,1003.9
2017-07-29T09:47:47.974Z,1003.9
2017-07-29T09:48:49.374Z,1004.3
2017-07-29T09:49:50.775Z,1004.1
2017-07-29T09:50:52.173Z,1004.0
2017-07-29T09:51:53.571Z,1004.4
2017-07-29T09:52:54.974Z,1004.1
2017-07-29T09:53:56.369Z,1004.1
2017-07-29T09:54:57.766Z,1004.2
2017-07-29T09:55:59.170Z,1004.1
2017-07-29T09:57:00.577Z,1004.0
2017-07-29T09:58:01.975Z,1003.9
2017-07-29T09:59:03.370Z,1004.0
2017-07-29T10:00:04.772Z,1004.1
2017-07-29T10:01:06.169Z,1004.1
2017-07-29T10:02:07.567Z,1004.3
2017-07-29T10:03:08.967Z,1004.4
2017-07-29T10:04:10.368Z,1004.1
2017-07-29T10:05:11.764Z,1004.2
2017-07-29T10:06:13.162Z,1004.2
2017-07-29T10:07:14.558Z,1004.2
2017-07-29T10:08:15.960Z,1004.1
2017-07-29T10:09:17.361Z,1004.0
2017-07-29T10:10:18.757Z,1004.0
2017-07-29T10:11:20.159Z,1003.9
2017-07-29T10:12:21.553Z,1003.8
2017-07-29T10:13:22.966Z,1003.8
2017-07-29T10:15:05.352Z,1003.9
2017-07-29T10:16:06.743Z,1003.9
2017-07-29T10:17:08.141Z,1003.8
2017-07-29T10:18:09.533Z,1003.8
2017-07-29T10:19:10.944Z,1003.8
2017-07-29T10:20:12.338Z,1003.9
2017-07-29T10:21:13.731Z,1003.9
2017-07-29T10:22:15.126Z,1003.9
2017-07-29T10:23:16.521Z,1003.9
2017-07-29T10:24:17.912Z,1004.0
2017-07-29T10:25:19.308Z,1004.0
2017-07-29T10:26:20.701Z,1004.0
2017-07-29T10:27:22.094Z,1003.9
2017-07-29T10:28:23.487Z,1004.0
2017-07-29T10:29:24.882Z,1004.0
2017-07-29T10:30:26.274Z,1004.1
2017-07-29T10:31:27.664Z,1004.1
2017-07-29T10:32:29.057Z,1004.1
2017-07-29T10:33:30.461Z,1004.0
2017-07-29T10:35:12.881Z,1003.9
2017-07-29T10:36:14.274Z,1004.0
2017-07-29T10:37:15.668Z,1004.1
2017-07-29T10:38:17.061Z,1004.1
2017-07-29T10:39:18.456Z,1003.9
2017-07-29T10:40:19.849Z,1004.0
2017-07-29T10:41:21.247Z,1004.0
2017-07-29T10:42:22.639Z,1004.1
2017-07-29T10:43:24.034Z,1004.2
2017-07-29T10:44:25.424Z,1004.2
2017-07-29T10:45:26.817Z,1004.2
2017-07-29T10:46:28.209Z,1004.1
2017-07-29T10:47:29.602Z,1004.2
2017-07-29T10:48:30.996Z,1004.1
2017-07-29T10:49:32.389Z,1004.2
2017-07-29T10:50:33.780Z,1004.1
2017-07-29T10:51:35.179Z,1004.1
2017-07-29T10:52:36.577Z,1004.1
2017-07-29T10:54:18.974Z,1004.1
2017-07-29T10:55:20.366Z,1004.1
2017-07-29T10:56:21.759Z,1004.1
2017-07-29T10:57:23.149Z,1004.1
2017-07-29T10:58:24.542Z,1004.1
2017-07-29T10:59:25.937Z,1004.2
2017-07-29T11:00:27.329Z,1004.3
2017-07-29T11:01:28.727Z,1004.3
2017-07-29T11:02:30.118Z,1004.2
2017-07-29T11:03:31.510Z,1004.2
2017-07-29T11:04:32.904Z,1004.1
2017-07-29T11:05:34.304Z,1004.4
2017-07-29T11:06:35.693Z,1004.5
2017-07-29T11:07:37.087Z,1004.4
2017-07-29T11:08:38.484Z,1004.4
2017-07-29T11:09:39.878Z,1004.4
2017-07-29T11:10:41.286Z,1004.4
2017-07-29T11:11:42.673Z,1004.6
2017-07-29T11:13:25.089Z,1004.3
2017-07-29T11:14:26.479Z,1004.2
2017-07-29T11:15:27.867Z,1004.3
2017-07-29T11:16:29.262Z,1004.3
2017-07-29T11:17:30.652Z,1004.1
2017-07-29T11:18:32.058Z,1004.0
2017-07-29T11:19:33.452Z,1004.0
2017-07-29T11:20:34.854Z,1004.0
2017-07-29T11:21:36.280Z,1004.3
2017-07-29T11:22:37.673Z,1004.2
2017-07-29T11:23:39.067Z,1004.2
2017-07-29T11:24:40.463Z,1004.1
2017-07-29T11:25:41.861Z,1004.0
2017-07-29T11:26:43.254Z,1004.2
2017-07-29T11:27:44.650Z,1004.2
2017-07-29T11:28:46.069Z,1004.2
2017-07-29T11:29:47.463Z,1004.2
2017-07-29T11:30:48.854Z,1004.1
2017-07-29T11:31:50.253Z,1004.2
2017-07-29T11:32:51.643Z,1004.2
2017-07-29T11:33:53.035Z,1004.1
2017-07-29T11:34:54.431Z,1004.1
2017-07-29T11:35:55.823Z,1004.2
2017-07-29T11:36:57.212Z,1004.2
2017-07-29T11:37:58.607Z,1004.1
2017-07-29T11:39:00.003Z,1004.2
2017-07-29T11:40:01.400Z,1004.2
2017-07-29T11:41:43.780Z,1004.1
2017-07-29T11:42:45.169Z,1004.1
2017-07-29T11:43:46.566Z,1004.1
2017-07-29T11:44:47.962Z,1004.1
2017-07-29T11:45:49.352Z,1004.2
2017-07-29T11:46:50.760Z,1004.2
2017-07-29T11:47:52.156Z,1004.2
2017-07-29T11:48:53.549Z,1004.2
2017-07-29T11:49:54.957Z,1004.3
2017-07-29T11:50:56.332Z,1004.2
2017-07-29T11:51:57.729Z,1004.2
2017-07-29T11:52:59.119Z,1004.2
2017-07-29T11:54:00.518Z,1004.2
2017-07-29T11:55:01.912Z,1004.2
2017-07-29T11:56:03.308Z,1004.3
2017-07-29T11:57:04.700Z,1004.4
2017-07-29T11:58:06.099Z,1004.3
2017-07-29T11:59:07.492Z,1004.4
2017-07-29T12:00:08.890Z,1004.3
2017-07-29T12:01:10.290Z,1004.4
2017-07-29T12:02:11.687Z,1004.4
2017-07-29T12:03:13.085Z,1004.4
2017-07-29T12:04:14.480Z,1004.4
2017-07-29T12:05:15.889Z,1004.4
2017-07-29T12:06:17.283Z,1004.3
2017-07-29T12:07:18.752Z,1004.3
2017-07-29T12:08:20.149Z,1004.3
2017-07-29T12:09:21.546Z,1004.1
2017-07-29T12:10:22.938Z,1004.1
2017-07-29T12:11:24.328Z,1004.2
2017-07-29T12:12:25.730Z,1004.2
2017-07-29T12:13:27.124Z,1004.1
2017-07-29T12:14:28.521Z,1004.2
2017-07-29T12:15:29.920Z,1004.2
2017-07-29T12:16:31.318Z,1004.2
2017-07-29T12:17:32.709Z,1004.1
2017-07-29T12:18:34.101Z,1004.2
2017-07-29T12:19:35.493Z,1004.3
2017-07-29T12:20:36.888Z,1004.3
2017-07-29T12:21:38.282Z,1004.4
2017-07-29T12:22:39.687Z,1004.4
2017-07-29T12:23:41.105Z,1004.3
2017-07-29T12:24:42.502Z,1004.3
2017-07-29T12:25:43.892Z,1004.4
2017-07-29T12:26:45.278Z,1004.4
2017-07-29T12:27:46.681Z,1004.5
2017-07-29T12:28:48.082Z,1004.4
2017-07-29T12:29:49.473Z,1004.4
2017-07-29T12:30:50.867Z,1004.4
2017-07-29T12:31:52.268Z,1004.4
2017-07-29T12:32:53.664Z,1004.3
2017-07-29T12:33:55.065Z,1004.4
2017-07-29T12:34:56.484Z,1004.1
2017-07-29T12:35:57.856Z,1004.1
2017-07-29T12:36:59.254Z,1004.0
2017-07-29T12:38:00.656Z,1004.0
2017-07-29T12:39:02.071Z,1004.1
2017-07-29T12:40:03.451Z,1004.1
2017-07-29T12:41:04.856Z,1004.2
2017-07-29T12:42:06.252Z,1004.4
2017-07-29T12:43:07.652Z,1004.4
2017-07-29T12:44:09.054Z,1004.2
2017-07-29T12:45:10.455Z,1004.1
2017-07-29T12:46:11.852Z,1004.1
2017-07-29T12:47:13.250Z,1004.2
2017-07-29T12:48:14.646Z,1004.1
2017-07-29T12:49:16.044Z,1004.1
2017-07-29T12:50:17.442Z,1004.2
2017-07-29T12:51:18.842Z,1004.2
2017-07-29T12:52:20.259Z,1004.3
2017-07-29T12:53:21.661Z,1004.2
2017-07-29T12:54:23.056Z,1004.3
2017-07-29T12:55:24.454Z,1004.2
2017-07-29T12:56:25.861Z,1004.2
2017-07-29T12:57:27.260Z,1004.0
2017-07-29T12:58:28.661Z,1004.1
2017-07-29T12:59:30.056Z,1004.1
2017-07-29T13:00:31.463Z,1004.1
2017-07-29T13:01:32.915Z,1004.1
2017-07-29T13:02:34.314Z,1004.0
2017-07-29T13:03:35.730Z,1003.9